createdAt,value
2023-04-08T00:00:46.934Z,0.00
2023-04-08T00:01:46.939Z,0.00
2023-04-08T00:02:46.940Z,0.00
2023-04-08T00:03:47.100Z,0.00
2023-04-08T00:04:46.924Z,0.00
2023-04-08T00:05:46.878Z,0.00
2023-04-08T00:06:46.875Z,0.00
2023-04-08T00:07:46.834Z,0.00
2023-04-08T00:08:46.857Z,0.00
2023-04-08T00:09:46.816Z,0.00
2023-04-08T00:10:47.495Z,0.00
2023-04-08T00:11:47.612Z,0.00
2023-04-08T00:12:46.852Z,0.00
2023-04-08T00:13:46.775Z,0.00
2023-04-08T00:14:46.994Z,0.00
2023-04-08T00:15:47.737Z,0.00
2023-04-08T00:16:47.035Z,0.00
2023-04-08T00:17:46.782Z,0.00
2023-04-08T00:18:46.745Z,0.00
2023-04-08T00:19:46.723Z,0.00
2023-04-08T00:20:46.723Z,0.00
2023-04-08T00:21:46.698Z,0.00
2023-04-08T00:22:46.713Z,0.00
2023-04-08T00:23:46.673Z,0.00
2023-04-08T00:24:46.672Z,0.00
2023-04-08T00:25:46.652Z,0.00
2023-04-08T00:26:46.656Z,0.00
2023-04-08T00:27:46.640Z,0.00
2023-04-08T00:28:46.619Z,0.00
2023-04-08T00:29:46.634Z,0.00
2023-04-08T00:30:46.641Z,0.00
2023-04-08T00:31:46.584Z,0.00
2023-04-08T00:32:46.604Z,0.00
2023-04-08T00:33:46.524Z,0.00
2023-04-08T00:34:46.576Z,0.00
2023-04-08T00:35:46.570Z,0.00
2023-04-08T00:36:46.516Z,0.00
2023-04-08T00:37:46.491Z,0.00
2023-04-08T00:38:46.508Z,0.00
2023-04-08T00:39:46.487Z,0.00
2023-04-08T00:40:46.489Z,0.00
2023-04-08T00:41:46.467Z,0.00
2023-04-08T00:42:46.497Z,0.00
2023-04-08T00:43:46.435Z,0.00
2023-04-08T00:44:46.439Z,0.00
2023-04-08T00:45:46.423Z,0.00
2023-04-08T00:46:46.415Z,0.00
2023-04-08T00:47:46.423Z,0.00
2023-04-08T00:48:46.471Z,0.00
2023-04-08T00:49:46.368Z,0.00
2023-04-08T00:50:46.381Z,0.00
2023-04-08T00:51:46.530Z,0.00
2023-04-08T00:52:46.358Z,0.00
2023-04-08T00:53:46.382Z,0.00
2023-04-08T00:54:46.346Z,0.00
2023-04-08T00:55:46.299Z,0.00
2023-04-08T00:56:46.323Z,0.00
2023-04-08T00:57:46.281Z,0.00
2023-04-08T00:58:46.297Z,0.00
2023-04-08T00:59:46.231Z,0.00
2023-04-08T01:00:46.252Z,0.00
2023-04-08T01:01:46.343Z,0.00
2023-04-08T01:02:46.325Z,0.00
2023-04-08T01:03:46.304Z,0.00
2023-04-08T01:04:46.204Z,0.00
2023-04-08T01:05:46.183Z,0.00
2023-04-08T01:06:46.183Z,0.00
2023-04-08T01:07:46.162Z,0.00
2023-04-08T01:08:46.182Z,0.00
2023-04-08T01:09:46.153Z,0.00
2023-04-08T01:10:46.146Z,0.00
2023-04-08T01:11:46.471Z,0.00
2023-04-08T01:12:46.151Z,0.00
2023-04-08T01:13:46.112Z,0.00
2023-04-08T01:14:46.067Z,0.00
2023-04-08T01:15:46.127Z,0.00
2023-04-08T01:16:46.054Z,0.00
2023-04-08T01:17:46.106Z,0.00
2023-04-08T01:18:46.021Z,0.00
2023-04-08T01:19:46.062Z,0.00
2023-04-08T01:20:46.011Z,0.00
2023-04-08T01:21:46.012Z,0.00
2023-04-08T01:22:45.985Z,0.00
2023-04-08T01:23:45.994Z,0.00
2023-04-08T01:24:45.994Z,0.00
2023-04-08T01:25:45.993Z,0.00
2023-04-08T01:26:45.969Z,0.00
2023-04-08T01:27:46.016Z,0.00
2023-04-08T01:28:45.915Z,0.00
2023-04-08T01:29:45.949Z,0.00
2023-04-08T01:30:45.962Z,0.00
2023-04-08T01:31:45.935Z,0.00
2023-04-08T01:32:45.883Z,0.00
2023-04-08T01:33:45.894Z,0.00
2023-04-08T01:34:45.860Z,0.00
2023-04-08T01:35:45.912Z,0.00
2023-04-08T01:36:45.834Z,0.00
2023-04-08T01:37:45.870Z,0.00
2023-04-08T01:38:45.814Z,0.00
2023-04-08T01:39:45.826Z,0.00
2023-04-08T01:40:45.880Z,0.00
2023-04-08T01:41:45.798Z,0.00
2023-04-08T01:42:45.790Z,0.00
2023-04-08T01:43:45.797Z,0.00
2023-04-08T01:45:41.639Z,0.00
2023-04-08T01:46:41.658Z,0.00
2023-04-08T01:47:41.681Z,0.00
2023-04-08T01:48:41.603Z,0.00
2023-04-08T01:49:41.617Z,0.00
2023-04-08T01:50:41.572Z,0.00
2023-04-08T01:51:41.718Z,0.00
2023-04-08T01:52:41.590Z,0.00
2023-04-08T01:53:41.593Z,0.00
2023-04-08T01:54:41.521Z,0.00
2023-04-08T01:55:41.551Z,0.00
2023-04-08T01:56:41.538Z,0.00
2023-04-08T01:57:41.541Z,0.00
2023-04-08T01:58:41.482Z,0.00
2023-04-08T01:59:41.511Z,0.00
2023-04-08T02:00:41.478Z,0.00
2023-04-08T02:01:41.562Z,0.00
2023-04-08T02:02:41.657Z,0.00
2023-04-08T02:03:41.589Z,0.00
2023-04-08T02:04:41.586Z,0.00
2023-04-08T02:05:41.437Z,0.00
2023-04-08T02:06:41.395Z,0.00
2023-04-08T02:07:41.413Z,0.00
2023-04-08T02:08:41.475Z,0.00
2023-04-08T02:09:41.391Z,0.00
2023-04-08T02:10:41.373Z,0.00
2023-04-08T02:11:41.391Z,0.00
2023-04-08T02:12:41.377Z,0.00
2023-04-08T02:13:41.369Z,0.00
2023-04-08T02:14:41.324Z,0.00
2023-04-08T02:15:41.353Z,0.00
2023-04-08T02:16:41.487Z,0.00
2023-04-08T02:17:41.341Z,0.00
2023-04-08T02:18:41.257Z,0.00
2023-04-08T02:19:41.287Z,0.00
2023-04-08T02:20:41.296Z,0.00
2023-04-08T02:21:41.256Z,0.00
2023-04-08T02:22:41.223Z,0.00
2023-04-08T02:23:41.233Z,0.00
2023-04-08T02:24:41.238Z,0.00
2023-04-08T02:25:41.229Z,0.00
2023-04-08T02:26:41.189Z,0.00
2023-04-08T02:27:41.191Z,0.00
2023-04-08T02:28:41.162Z,0.00
2023-04-08T02:29:41.184Z,0.00
2023-04-08T02:30:41.176Z,0.00
2023-04-08T02:31:41.159Z,0.00
2023-04-08T02:32:41.564Z,0.00
2023-04-08T02:33:41.123Z,0.00
2023-04-08T02:34:41.107Z,0.00
2023-04-08T02:35:41.243Z,0.00
2023-04-08T02:36:41.100Z,0.00
2023-04-08T02:37:41.239Z,0.00
2023-04-08T02:38:41.066Z,0.00
2023-04-08T02:39:41.100Z,0.00
2023-04-08T02:40:41.029Z,0.00
2023-04-08T02:41:41.080Z,0.00
2023-04-08T02:42:41.079Z,0.00
2023-04-08T02:43:41.016Z,0.00
2023-04-08T02:44:40.999Z,0.00
2023-04-08T02:45:41.034Z,0.00
2023-04-08T02:46:41.071Z,0.00
2023-04-08T02:47:40.978Z,0.00
2023-04-08T02:48:41.055Z,0.00
2023-04-08T02:49:41.954Z,0.00
2023-04-08T02:50:40.930Z,0.00
2023-04-08T02:51:40.939Z,0.00
2023-04-08T02:52:40.973Z,0.00
2023-04-08T02:53:40.998Z,0.00
2023-04-08T02:54:40.879Z,0.00
2023-04-08T02:55:40.989Z,0.00
2023-04-08T02:56:40.856Z,0.00
2023-04-08T02:57:40.948Z,0.00
2023-04-08T02:58:40.843Z,0.00
2023-04-08T02:59:40.863Z,0.00
2023-04-08T03:00:40.857Z,0.00
2023-04-08T03:01:40.860Z,0.00
2023-04-08T03:02:40.900Z,0.00
2023-04-08T03:03:41.079Z,0.00
2023-04-08T03:04:40.799Z,0.00
2023-04-08T03:05:40.796Z,0.00
2023-04-08T03:06:40.737Z,0.00
2023-04-08T03:07:40.776Z,0.00
2023-04-08T03:08:40.727Z,0.00
2023-04-08T03:09:40.736Z,0.00
2023-04-08T03:10:40.844Z,0.00
2023-04-08T03:11:40.719Z,0.00
2023-04-08T03:12:40.718Z,0.00
2023-04-08T03:13:40.874Z,0.00
2023-04-08T03:14:40.687Z,0.00
2023-04-08T03:15:40.719Z,0.00
2023-04-08T03:16:40.622Z,0.00
2023-04-08T03:17:40.684Z,0.00
2023-04-08T03:18:40.613Z,0.00
2023-04-08T03:19:40.621Z,0.00
2023-04-08T03:20:40.582Z,0.00
2023-04-08T03:21:40.602Z,0.00
2023-04-08T03:22:40.592Z,0.00
2023-04-08T03:23:40.583Z,0.00
2023-04-08T03:24:40.537Z,0.00
2023-04-08T03:25:40.554Z,0.00
2023-04-08T03:26:40.554Z,0.00
2023-04-08T03:27:40.530Z,0.00
2023-04-08T03:28:40.543Z,0.00
2023-04-08T03:29:40.509Z,0.00
2023-04-08T03:30:40.495Z,0.00
2023-04-08T03:31:40.565Z,0.00
2023-04-08T03:32:40.474Z,0.00
2023-04-08T03:33:41.269Z,0.00
2023-04-08T03:34:40.466Z,0.00
2023-04-08T03:35:40.600Z,0.00
2023-04-08T03:36:40.443Z,0.00
2023-04-08T03:37:40.428Z,0.00
2023-04-08T03:38:40.492Z,0.00
2023-04-08T03:39:40.417Z,0.00
2023-04-08T03:40:40.388Z,0.00
2023-04-08T03:41:40.417Z,0.00
2023-04-08T03:42:40.366Z,0.00
2023-04-08T03:43:40.351Z,0.00
2023-04-08T03:44:40.458Z,0.00
2023-04-08T03:45:40.362Z,0.00
2023-04-08T03:46:40.308Z,0.00
2023-04-08T03:47:40.395Z,0.00
2023-04-08T03:48:40.404Z,0.00
2023-04-08T03:49:40.292Z,0.00
2023-04-08T03:50:40.274Z,0.00
2023-04-08T03:51:40.332Z,0.00
2023-04-08T03:52:40.272Z,0.00
2023-04-08T03:53:40.249Z,0.00
2023-04-08T03:54:40.662Z,0.00
2023-04-08T03:55:40.269Z,0.00
2023-04-08T03:56:40.213Z,0.00
2023-04-08T03:57:40.192Z,0.00
2023-04-08T03:58:40.239Z,0.00
2023-04-08T03:59:40.163Z,0.00
2023-04-08T04:00:40.167Z,0.00
2023-04-08T04:01:41.969Z,0.00
2023-04-08T04:02:40.373Z,0.00
2023-04-08T04:03:40.272Z,0.00
2023-04-08T04:04:40.154Z,0.00
2023-04-08T04:05:40.211Z,0.00
2023-04-08T04:06:40.100Z,0.00
2023-04-08T04:07:40.076Z,0.00
2023-04-08T04:08:40.083Z,0.00
2023-04-08T04:09:40.069Z,0.00
2023-04-08T04:10:40.065Z,0.00
2023-04-08T04:11:40.027Z,0.00
2023-04-08T04:12:40.079Z,0.00
2023-04-08T04:13:40.070Z,0.00
2023-04-08T04:14:40.009Z,0.00
2023-04-08T04:15:40.157Z,0.00
2023-04-08T04:16:40.004Z,0.00
2023-04-08T04:17:39.967Z,0.00
2023-04-08T04:18:40.076Z,0.00
2023-04-08T04:19:40.069Z,0.00
2023-04-08T04:20:39.960Z,0.00
2023-04-08T04:21:39.922Z,0.00
2023-04-08T04:22:40.123Z,0.00
2023-04-08T04:23:39.929Z,0.00
2023-04-08T04:24:39.890Z,0.00
2023-04-08T04:25:39.943Z,4.00
2023-04-08T04:26:39.883Z,4.00
2023-04-08T04:27:39.875Z,4.00
2023-04-08T04:28:39.860Z,0.00
2023-04-08T04:29:39.967Z,4.00
2023-04-08T04:30:39.849Z,4.00
2023-04-08T04:31:39.910Z,8.00
2023-04-08T04:32:39.891Z,4.00
2023-04-08T04:33:39.769Z,8.00
2023-04-08T04:34:39.829Z,8.00
2023-04-08T04:35:39.779Z,8.00
2023-04-08T04:36:39.785Z,12.00
2023-04-08T04:37:39.896Z,12.00
2023-04-08T04:38:39.745Z,12.00
2023-04-08T04:39:39.723Z,16.00
2023-04-08T04:40:39.706Z,16.00
2023-04-08T04:41:39.695Z,20.00
2023-04-08T04:42:39.811Z,24.00
2023-04-08T04:43:39.673Z,28.00
2023-04-08T04:44:39.694Z,32.00
2023-04-08T04:45:39.631Z,36.00
2023-04-08T04:46:39.689Z,44.00
2023-04-08T04:47:39.632Z,44.00
2023-04-08T04:48:39.631Z,48.00
2023-04-08T04:49:39.693Z,56.00
2023-04-08T04:50:39.625Z,60.00
2023-04-08T04:51:39.587Z,68.00
2023-04-08T04:52:39.573Z,72.00
2023-04-08T04:53:39.668Z,76.00
2023-04-08T04:54:39.586Z,80.00
2023-04-08T04:55:39.528Z,84.00
2023-04-08T04:56:40.077Z,92.00
2023-04-08T04:57:39.539Z,100.00
2023-04-08T04:58:39.537Z,108.00
2023-04-08T04:59:39.500Z,108.00
2023-04-08T05:00:39.545Z,112.00
2023-04-08T05:01:39.555Z,120.00
2023-04-08T05:02:39.659Z,124.00
2023-04-08T05:03:39.485Z,120.00
2023-04-08T05:04:39.621Z,136.00
2023-04-08T05:05:39.435Z,148.00
2023-04-08T05:06:39.529Z,152.00
2023-04-08T05:07:39.426Z,160.00
2023-04-08T05:08:39.426Z,168.00
2023-04-08T05:09:39.510Z,176.00
2023-04-08T05:10:40.428Z,180.00
2023-04-08T05:11:39.367Z,184.00
2023-04-08T05:12:39.410Z,196.00
2023-04-08T05:13:39.326Z,208.00
2023-04-08T05:14:39.340Z,220.00
2023-04-08T05:15:39.476Z,224.00
2023-04-08T05:16:39.861Z,244.00
2023-04-08T05:17:39.335Z,264.00
2023-04-08T05:18:39.298Z,284.00
2023-04-08T05:19:39.295Z,292.00
2023-04-08T05:20:39.285Z,300.00
2023-04-08T05:21:39.359Z,312.00
2023-04-08T05:22:39.276Z,320.00
2023-04-08T05:23:39.261Z,328.00
2023-04-08T05:24:39.259Z,344.00
2023-04-08T05:25:39.346Z,368.00
2023-04-08T05:26:40.272Z,392.00
2023-04-08T05:27:39.215Z,408.00
2023-04-08T05:28:39.188Z,416.00
2023-04-08T05:29:39.193Z,416.00
2023-04-08T05:30:39.185Z,408.00
2023-04-08T05:31:39.179Z,412.00
2023-04-08T05:32:39.205Z,428.00
2023-04-08T05:33:39.117Z,436.00
2023-04-08T05:34:39.124Z,444.00
2023-04-08T05:35:39.160Z,460.00
2023-04-08T05:36:39.132Z,492.00
2023-04-08T05:37:39.096Z,508.00
2023-04-08T05:38:39.084Z,544.00
2023-04-08T05:39:39.051Z,596.00
2023-04-08T05:40:39.101Z,640.00
2023-04-08T05:41:39.023Z,684.00
2023-04-08T05:42:39.042Z,764.00
2023-04-08T05:43:39.015Z,820.00
2023-04-08T05:44:39.078Z,824.00
2023-04-08T05:45:39.020Z,840.00
2023-04-08T05:46:39.060Z,868.00
2023-04-08T05:47:39.074Z,888.00
2023-04-08T05:48:39.068Z,884.00
2023-04-08T05:49:39.003Z,900.00
2023-04-08T05:50:39.186Z,924.00
2023-04-08T05:51:38.930Z,948.00
2023-04-08T05:52:39.069Z,972.00
2023-04-08T05:53:38.943Z,992.00
2023-04-08T05:54:38.936Z,1008.00
2023-04-08T05:55:38.975Z,1016.00
2023-04-08T05:56:38.910Z,1024.00
2023-04-08T05:57:39.199Z,1032.00
2023-04-08T05:58:38.877Z,1052.00
2023-04-08T05:59:38.854Z,1088.00
2023-04-08T06:00:38.849Z,1136.00
2023-04-08T06:01:38.926Z,1180.00
2023-04-08T06:02:39.266Z,1208.00
2023-04-08T06:03:38.916Z,1244.00
2023-04-08T06:04:38.942Z,1272.00
2023-04-08T06:05:38.796Z,1300.00
2023-04-08T06:06:38.771Z,1332.00
2023-04-08T06:07:38.739Z,1376.00
2023-04-08T06:08:38.767Z,1428.00
2023-04-08T06:09:38.738Z,1480.00
2023-04-08T06:10:38.839Z,1536.00
2023-04-08T06:11:38.734Z,1588.00
2023-04-08T06:12:38.724Z,1616.00
2023-04-08T06:13:38.710Z,1608.00
2023-04-08T06:14:38.788Z,1572.00
2023-04-08T06:15:38.664Z,1532.00
2023-04-08T06:16:38.765Z,1504.00
2023-04-08T06:17:38.647Z,1488.00
2023-04-08T06:18:38.789Z,1468.00
2023-04-08T06:19:38.683Z,1448.00
2023-04-08T06:20:38.641Z,1452.00
2023-04-08T06:21:38.631Z,1428.00
2023-04-08T06:22:38.619Z,1416.00
2023-04-08T06:23:38.587Z,1448.00
2023-04-08T06:24:38.570Z,1532.00
2023-04-08T06:25:38.537Z,1636.00
2023-04-08T06:26:38.595Z,1672.00
2023-04-08T06:27:38.532Z,1632.00
2023-04-08T06:28:38.555Z,1588.00
2023-04-08T06:29:39.072Z,1564.00
2023-04-08T06:30:38.559Z,1568.00
2023-04-08T06:31:38.579Z,1564.00
2023-04-08T06:32:38.527Z,1556.00
2023-04-08T06:33:38.475Z,1596.00
2023-04-08T06:34:38.466Z,1652.00
2023-04-08T06:35:38.533Z,1668.00
2023-04-08T06:36:38.472Z,1644.00
2023-04-08T06:37:38.734Z,1572.00
2023-04-08T06:38:38.453Z,1512.00
2023-04-08T06:39:38.386Z,1448.00
2023-04-08T06:40:38.384Z,1392.00
2023-04-08T06:41:38.481Z,1324.00
2023-04-08T06:42:38.391Z,1256.00
2023-04-08T06:43:38.345Z,1232.00
2023-04-08T06:44:38.431Z,1264.00
2023-04-08T06:45:38.404Z,1340.00
2023-04-08T06:46:38.330Z,1436.00
2023-04-08T06:47:38.325Z,1580.00
2023-04-08T06:48:38.302Z,1728.00
2023-04-08T06:49:38.300Z,1820.00
2023-04-08T06:50:38.295Z,1844.00
2023-04-08T06:51:38.271Z,1824.00
2023-04-08T06:52:38.307Z,1740.00
2023-04-08T06:53:38.264Z,1688.00
2023-04-08T06:54:38.238Z,1640.00
2023-04-08T06:55:38.216Z,1628.00
2023-04-08T06:56:38.297Z,1600.00
2023-04-08T06:57:38.700Z,1596.00
2023-04-08T06:58:38.944Z,1612.00
2023-04-08T06:59:38.169Z,1592.00
2023-04-08T07:00:38.261Z,1560.00
2023-04-08T07:01:38.211Z,1504.00
2023-04-08T07:02:38.303Z,1504.00
2023-04-08T07:03:38.451Z,1520.00
2023-04-08T07:04:38.147Z,1476.00
2023-04-08T07:05:38.167Z,1408.00
2023-04-08T07:06:38.100Z,1348.00
2023-04-08T07:07:38.167Z,1288.00
2023-04-08T07:08:38.371Z,1252.00
2023-04-08T07:09:38.064Z,1276.00
2023-04-08T07:10:38.912Z,1328.00
2023-04-08T07:11:38.183Z,1408.00
2023-04-08T07:12:38.073Z,1432.00
2023-04-08T07:13:38.011Z,1432.00
2023-04-08T07:14:38.097Z,1408.00
2023-04-08T07:15:38.022Z,1420.00
2023-04-08T07:16:38.119Z,1492.00
2023-04-08T07:17:38.046Z,1596.00
2023-04-08T07:18:38.885Z,1660.00
2023-04-08T07:19:38.432Z,1780.00
2023-04-08T07:20:38.045Z,1924.00
2023-04-08T07:21:38.410Z,1972.00
2023-04-08T07:22:39.003Z,2024.00
2023-04-08T07:23:37.890Z,2036.00
2023-04-08T07:24:37.926Z,1936.00
2023-04-08T07:25:37.865Z,1928.00
2023-04-08T07:26:37.876Z,1908.00
2023-04-08T07:27:37.919Z,1932.00
2023-04-08T07:28:37.860Z,2012.00
2023-04-08T07:29:37.821Z,2112.00
2023-04-08T07:30:37.925Z,2220.00
2023-04-08T07:31:37.813Z,2248.00
2023-04-08T07:32:37.884Z,2312.00
2023-04-08T07:33:37.815Z,2332.00
2023-04-08T07:34:37.855Z,2388.00
2023-04-08T07:35:37.777Z,2512.00
2023-04-08T07:36:37.771Z,2628.00
2023-04-08T07:37:37.876Z,2728.00
2023-04-08T07:38:37.811Z,2696.00
2023-04-08T07:39:37.742Z,2512.00
2023-04-08T07:40:37.727Z,2248.00
2023-04-08T07:41:37.819Z,2072.00
2023-04-08T07:42:40.277Z,2024.00
2023-04-08T07:43:37.774Z,2108.00
2023-04-08T07:44:37.675Z,2084.00
2023-04-08T07:45:37.857Z,1952.00
2023-04-08T07:46:37.843Z,1852.00
2023-04-08T07:47:37.708Z,1780.00
2023-04-08T07:48:37.713Z,1792.00
2023-04-08T07:49:37.661Z,1896.00
2023-04-08T07:51:08.623Z,2028.00
2023-04-08T07:51:38.608Z,2160.00
2023-04-08T07:52:37.599Z,2204.00
2023-04-08T07:53:37.576Z,2188.00
2023-04-08T07:54:37.612Z,2112.00
2023-04-08T07:55:37.540Z,1936.00
2023-04-08T07:56:37.530Z,1800.00
2023-04-08T07:57:37.532Z,1712.00
2023-04-08T07:58:38.341Z,1668.00
2023-04-08T07:59:37.517Z,1668.00
2023-04-08T08:00:37.504Z,1692.00
2023-04-08T08:01:37.514Z,1772.00
2023-04-08T08:02:37.557Z,1844.00
2023-04-08T08:03:37.588Z,1828.00
2023-04-08T08:04:37.600Z,1728.00
2023-04-08T08:05:37.527Z,1628.00
2023-04-08T08:06:37.465Z,1500.00
2023-04-08T08:07:37.674Z,1392.00
2023-04-08T08:08:37.461Z,1372.00
2023-04-08T08:09:37.419Z,1368.00
2023-04-08T08:10:37.374Z,1360.00
2023-04-08T08:11:37.386Z,1372.00
2023-04-08T08:12:37.493Z,1468.00
2023-04-08T08:13:37.552Z,1588.00
2023-04-08T08:14:37.339Z,1616.00
2023-04-08T08:15:37.435Z,1588.00
2023-04-08T08:16:37.390Z,1508.00
2023-04-08T08:17:37.326Z,1452.00
2023-04-08T08:18:37.292Z,1508.00
2023-04-08T08:19:37.309Z,1568.00
2023-04-08T08:20:37.517Z,1628.00
2023-04-08T08:21:37.265Z,1868.00
2023-04-08T08:22:44.316Z,2112.00
2023-04-08T08:23:38.255Z,2156.00
2023-04-08T08:24:37.230Z,2124.00
2023-04-08T08:25:37.231Z,2056.00
2023-04-08T08:26:37.339Z,2172.00
2023-04-08T08:27:37.190Z,2308.00
2023-04-08T08:28:37.219Z,2388.00
2023-04-08T08:29:37.194Z,2640.00
2023-04-08T08:30:37.307Z,2876.00
2023-04-08T08:31:37.191Z,2812.00
2023-04-08T08:32:37.200Z,2672.00
2023-04-08T08:33:37.147Z,2620.00
2023-04-08T08:34:37.325Z,2620.00
2023-04-08T08:35:37.168Z,2596.00
2023-04-08T08:36:37.265Z,2716.00
2023-04-08T08:37:37.144Z,3112.00
2023-04-08T08:38:37.144Z,3352.00
2023-04-08T08:39:37.147Z,3304.00
2023-04-08T08:40:37.039Z,3344.00
2023-04-08T08:41:37.184Z,3360.00
2023-04-08T08:42:38.066Z,3072.00
2023-04-08T08:43:37.048Z,2980.00
2023-04-08T08:44:36.996Z,3180.00
2023-04-08T08:45:37.084Z,3460.00
2023-04-08T08:46:37.024Z,3348.00
2023-04-08T08:47:37.063Z,2936.00
2023-04-08T08:48:36.934Z,2448.00
2023-04-08T08:49:36.991Z,2180.00
2023-04-08T08:50:36.931Z,1948.00
2023-04-08T08:51:36.998Z,1956.00
2023-04-08T08:52:36.927Z,1968.00
2023-04-08T08:53:36.899Z,1892.00
2023-04-08T08:54:36.867Z,1808.00
2023-04-08T08:56:36.891Z,1992.00
2023-04-08T08:57:36.878Z,2036.00
2023-04-08T08:58:37.001Z,2108.00
2023-04-08T08:59:36.873Z,2152.00
2023-04-08T09:00:37.644Z,2204.00
2023-04-08T09:01:36.950Z,2224.00
2023-04-08T09:02:36.976Z,2228.00
2023-04-08T09:03:37.142Z,2268.00
2023-04-08T09:04:37.098Z,2252.00
2023-04-08T09:05:37.206Z,2200.00
2023-04-08T09:06:36.756Z,2160.00
2023-04-08T09:07:36.864Z,2124.00
2023-04-08T09:08:36.815Z,2120.00
2023-04-08T09:09:36.722Z,2044.00
2023-04-08T09:10:36.950Z,1980.00
2023-04-08T09:11:36.700Z,2040.00
2023-04-08T09:12:36.773Z,2200.00
2023-04-08T09:13:36.752Z,2384.00
2023-04-08T09:14:36.695Z,2688.00
2023-04-08T09:15:36.657Z,2916.00
2023-04-08T09:16:36.678Z,2952.00
2023-04-08T09:17:36.659Z,3032.00
2023-04-08T09:18:36.762Z,2920.00
2023-04-08T09:19:36.641Z,2608.00
2023-04-08T09:20:36.761Z,2384.00
2023-04-08T09:21:36.901Z,2360.00
2023-04-08T09:22:36.741Z,2424.00
2023-04-08T09:23:36.728Z,2464.00
2023-04-08T09:24:36.637Z,2544.00
2023-04-08T09:25:36.558Z,2652.00
2023-04-08T09:26:36.559Z,2688.00
2023-04-08T09:27:36.694Z,2648.00
2023-04-08T09:28:36.511Z,2628.00
2023-04-08T09:29:39.669Z,2652.00
2023-04-08T09:30:36.482Z,2536.00
2023-04-08T09:31:36.670Z,2412.00
2023-04-08T09:32:36.472Z,2412.00
2023-04-08T09:33:36.592Z,2488.00
2023-04-08T09:34:36.595Z,2564.00
2023-04-08T09:35:36.548Z,2560.00
2023-04-08T09:36:36.415Z,2524.00
2023-04-08T09:37:36.500Z,2688.00
2023-04-08T09:38:36.394Z,2900.00
2023-04-08T09:39:36.412Z,3160.00
2023-04-08T09:40:36.483Z,3424.00
2023-04-08T09:41:36.437Z,3552.00
2023-04-08T09:42:36.393Z,3672.00
2023-04-08T09:43:36.362Z,4004.00
2023-04-08T09:44:36.366Z,4840.00
2023-04-08T09:45:36.352Z,5452.00
2023-04-08T09:46:36.301Z,5232.00
2023-04-08T09:47:36.371Z,4768.00
2023-04-08T09:48:36.352Z,4432.00
2023-04-08T09:49:36.278Z,4296.00
2023-04-08T09:50:36.259Z,4212.00
2023-04-08T09:51:36.296Z,3924.00
2023-04-08T09:52:36.247Z,3924.00
2023-04-08T09:53:36.307Z,4196.00
2023-04-08T09:54:36.338Z,4388.00
2023-04-08T09:55:36.283Z,4344.00
2023-04-08T09:56:36.201Z,4320.00
2023-04-08T09:57:36.224Z,4384.00
2023-04-08T09:58:36.175Z,4480.00
2023-04-08T09:59:36.193Z,4460.00
2023-04-08T10:00:36.147Z,4504.00
2023-04-08T10:01:36.362Z,4580.00
2023-04-08T10:02:36.321Z,4768.00
2023-04-08T10:03:36.304Z,4916.00
2023-04-08T10:04:36.153Z,4848.00
2023-04-08T10:05:36.291Z,4364.00
2023-04-08T10:06:36.092Z,4044.00
2023-04-08T10:07:36.104Z,3812.00
2023-04-08T10:08:36.088Z,3400.00
2023-04-08T10:09:36.419Z,3172.00
2023-04-08T10:10:36.076Z,3144.00
2023-04-08T10:11:36.035Z,3160.00
2023-04-08T10:12:36.061Z,3344.00
2023-04-08T10:13:36.031Z,3608.00
2023-04-08T10:14:36.072Z,3756.00
2023-04-08T10:15:36.078Z,3624.00
2023-04-08T10:16:36.995Z,3384.00
2023-04-08T10:17:36.071Z,3168.00
2023-04-08T10:18:36.041Z,2964.00
2023-04-08T10:19:36.108Z,2924.00
2023-04-08T10:20:35.938Z,3028.00
2023-04-08T10:21:35.996Z,3036.00
2023-04-08T10:22:35.926Z,2812.00
2023-04-08T10:23:36.046Z,2632.00
2023-04-08T10:24:36.031Z,2512.00
2023-04-08T10:25:35.910Z,2488.00
2023-04-08T10:26:35.873Z,2436.00
2023-04-08T10:27:36.467Z,2364.00
2023-04-08T10:28:36.142Z,2304.00
2023-04-08T10:29:35.867Z,2360.00
2023-04-08T10:30:35.863Z,2412.00
2023-04-08T10:31:36.178Z,2580.00
2023-04-08T10:32:35.839Z,2932.00
2023-04-08T10:33:38.497Z,3204.00
2023-04-08T10:34:35.759Z,3392.00
2023-04-08T10:35:35.880Z,3640.00
2023-04-08T10:36:35.738Z,3760.00
2023-04-08T10:37:36.569Z,3708.00
2023-04-08T10:38:35.745Z,3700.00
2023-04-08T10:39:37.579Z,3776.00
2023-04-08T10:40:36.567Z,3804.00
2023-04-08T10:41:35.978Z,3800.00
2023-04-08T10:42:35.852Z,3956.00
2023-04-08T10:43:36.507Z,4072.00
2023-04-08T10:44:35.835Z,4012.00
2023-04-08T10:45:35.812Z,4148.00
2023-04-08T10:46:35.810Z,4380.00
2023-04-08T10:47:35.737Z,4592.00
2023-04-08T10:48:35.635Z,4632.00
2023-04-08T10:49:35.673Z,4356.00
2023-04-08T10:50:35.577Z,3908.00
2023-04-08T10:51:35.594Z,3552.00
2023-04-08T10:52:36.007Z,3356.00
2023-04-08T10:53:35.656Z,3284.00
2023-04-08T10:54:35.561Z,3364.00
2023-04-08T10:55:35.571Z,3436.00
2023-04-08T10:56:35.519Z,3484.00
2023-04-08T10:57:35.523Z,3472.00
2023-04-08T10:58:35.502Z,3364.00
2023-04-08T10:59:35.541Z,3284.00
2023-04-08T11:00:35.708Z,3264.00
2023-04-08T11:01:35.583Z,3348.00
2023-04-08T11:02:35.595Z,3480.00
2023-04-08T11:03:35.677Z,3652.00
2023-04-08T11:04:35.613Z,3744.00
2023-04-08T11:05:36.035Z,3684.00
2023-04-08T11:06:35.414Z,3600.00
2023-04-08T11:07:35.419Z,3708.00
2023-04-08T11:08:35.435Z,3968.00
2023-04-08T11:09:35.399Z,4128.00
2023-04-08T11:10:35.385Z,4084.00
2023-04-08T11:11:35.374Z,3956.00
2023-04-08T11:12:35.874Z,3928.00
2023-04-08T11:13:35.617Z,4012.00
2023-04-08T11:14:35.435Z,4244.00
2023-04-08T11:15:35.496Z,4604.00
2023-04-08T11:16:35.451Z,4900.00
2023-04-08T11:17:35.448Z,5024.00
2023-04-08T11:18:35.613Z,4872.00
2023-04-08T11:19:35.842Z,4920.00
2023-04-08T11:21:47.811Z,5516.00
2023-04-08T11:22:47.555Z,5732.00
2023-04-08T11:23:47.069Z,6004.00
2023-04-08T11:24:47.036Z,6452.00
2023-04-08T11:25:46.981Z,6960.00
2023-04-08T11:26:47.015Z,7184.00
2023-04-08T11:27:46.946Z,6984.00
2023-04-08T11:28:46.974Z,6580.00
2023-04-08T11:29:47.278Z,7012.00
2023-04-08T11:30:47.011Z,7956.00
2023-04-08T11:31:47.007Z,8504.00
2023-04-08T11:32:46.942Z,8400.00
2023-04-08T11:33:47.064Z,8100.00
2023-04-08T11:34:46.946Z,8068.00
2023-04-08T11:35:47.054Z,8188.00
2023-04-08T11:36:46.859Z,8308.00
2023-04-08T11:37:46.889Z,8364.00
2023-04-08T11:38:46.832Z,8200.00
2023-04-08T11:39:46.870Z,7928.00
2023-04-08T11:40:46.840Z,7760.00
2023-04-08T11:41:46.821Z,7732.00
2023-04-08T11:42:47.181Z,7432.00
2023-04-08T11:43:46.832Z,6920.00
2023-04-08T11:44:46.999Z,6716.00
2023-04-08T11:45:46.836Z,6504.00
2023-04-08T11:46:46.781Z,6156.00
2023-04-08T11:47:47.131Z,6024.00
2023-04-08T11:48:46.691Z,5576.00
2023-04-08T11:49:46.997Z,5636.00
2023-04-08T11:50:46.684Z,5740.00
2023-04-08T11:51:46.668Z,5368.00
2023-04-08T11:52:47.131Z,5636.00
2023-04-08T11:53:49.633Z,5712.00
2023-04-08T11:54:46.825Z,5080.00
2023-04-08T11:55:46.761Z,4944.00
2023-04-08T11:56:47.431Z,4844.00
2023-04-08T11:57:46.647Z,4432.00
2023-04-08T11:58:47.067Z,4192.00
2023-04-08T11:59:46.612Z,4104.00
2023-04-08T12:00:47.350Z,3700.00
2023-04-08T12:01:46.676Z,3684.00
2023-04-08T12:02:46.585Z,3300.00
2023-04-08T12:03:46.990Z,2804.00
2023-04-08T12:04:47.049Z,2600.00
2023-04-08T12:05:47.283Z,2596.00
2023-04-08T12:06:46.616Z,2752.00
2023-04-08T12:07:46.666Z,2960.00
2023-04-08T12:08:46.514Z,3028.00
2023-04-08T12:09:46.485Z,3192.00
2023-04-08T12:10:46.627Z,3636.00
2023-04-08T12:11:47.392Z,3704.00
2023-04-08T12:12:46.490Z,3872.00
2023-04-08T12:13:46.455Z,4284.00
2023-04-08T12:14:46.468Z,4804.00
2023-04-08T12:15:46.560Z,5284.00
2023-04-08T12:16:46.522Z,5412.00
2023-04-08T12:17:46.722Z,5392.00
2023-04-08T12:18:46.350Z,5348.00
2023-04-08T12:19:46.437Z,5340.00
2023-04-08T12:20:46.745Z,4760.00
2023-04-08T12:21:46.382Z,4416.00
2023-04-08T12:22:46.312Z,4508.00
2023-04-08T12:23:46.337Z,4468.00
2023-04-08T12:24:46.333Z,5384.00
2023-04-08T12:25:46.390Z,6160.00
2023-04-08T12:26:46.299Z,6036.00
2023-04-08T12:27:46.304Z,5336.00
2023-04-08T12:28:46.241Z,4436.00
2023-04-08T12:29:46.366Z,5064.00
2023-04-08T12:30:46.281Z,6276.00
2023-04-08T12:31:46.422Z,6296.00
2023-04-08T12:32:46.431Z,5788.00
2023-04-08T12:33:46.309Z,5512.00
2023-04-08T12:34:46.716Z,6168.00
2023-04-08T12:35:46.249Z,6476.00
2023-04-08T12:36:46.189Z,6732.00